Terminal Aerodrome Forecast
Issued by NWS

Home | Current Version | Previous Version | Text Only | Print | Product List | Glossary On
Versions: 1 2 3 4 5 6 7 8 9 10 11 12 13 14 15 16 17
000
FTUS43 KIND 240500
TAFHUF
TAF
KHUF 240520Z 2406/2506 VRB03KT P6SM OVC120
     FM241500 13012KT P6SM BKN100
     FM241800 14015G22KT P6SM BKN100
     FM242200 16012G18KT P6SM SCT050 OVC100
     FM250000 16012G18KT 5SM SHRA VCTS OVC040CB=

USA.gov is the U.S. government's official web portal to all federal, state and local government web resources and services.